E2303 im Turnier von 10.01.2018 bis 17.01.2018

E2303s Ergebnis

Rang 36.
Turnierpunkte 528
Gespielt : Gewonnen 50 : 33
Schneider 6
Bilanz 312:223

E2303s Bummerln

Zeit Gegner Ergebnis Ende
21:57:12 am 12.01.2018 Börni 8:6 normal
21:52:18 am 12.01.2018 5Srecko 5:8 normal
21:48:14 am 12.01.2018 Michael K. 7:2 normal
21:42:51 am 12.01.2018 Dagobert 7:5 normal
21:38:29 am 12.01.2018 F3111 9:4 normal
21:34:07 am 12.01.2018 benjaminblümchen 4:8 normal
21:15:16 am 12.01.2018 hau her 2:7 normal
21:10:20 am 12.01.2018 HUAWEI VNS-L21 5:9 normal
21:01:58 am 12.01.2018 Erika 7:5 normal
20:58:08 am 12.01.2018 Hr. Werner 8:0 normal
20:49:34 am 12.01.2018 Thailand 8:4 normal
20:44:32 am 12.01.2018 Peter 7:4 normal
20:33:53 am 12.01.2018 SM-T585 4:8 normal
20:28:32 am 12.01.2018 Sabine Prothej 7:6 normal
20:24:02 am 12.01.2018 Bonobo 7:2 normal
20:20:35 am 12.01.2018 joe54 7:0 normal
20:17:19 am 12.01.2018 Erwin 1:7 normal
20:14:28 am 12.01.2018 sigi 3:7 normal
20:09:24 am 12.01.2018 woifal 1981 8:5 normal
20:04:42 am 12.01.2018 *richi der kleine 9:5 autocontnormal
20:00:32 am 12.01.2018 Márton Tivadar 8:1 normal
19:58:06 am 12.01.2018 Gerhard 7:1 normal
19:54:33 am 12.01.2018 Wolfi 4:7 normal
19:51:51 am 12.01.2018 Marco Polo 8:2 normal
19:49:49 am 12.01.2018 Mooseman 0:7 normal
19:44:03 am 12.01.2018 Valti 8:0 normal
19:31:51 am 12.01.2018 Ewald Steiner 6:8 normal
19:26:41 am 12.01.2018 Speedbert 63 3:7 normal
19:22:48 am 12.01.2018 Gerald 9:2 normal
19:18:27 am 12.01.2018 Jürgen Felber 5:7 normal
19:15:46 am 12.01.2018 Tome 7:0 normal
19:13:27 am 12.01.2018 Bianca Pingitzer 7:2 normal
19:10:46 am 12.01.2018 Henry14 8:5 normal
19:07:17 am 12.01.2018 T.H. 0:8 normal
17:43:27 am 12.01.2018 Herwig Kuglgruber 6:7 normal
17:41:10 am 12.01.2018 Sonja742 7:0 normal
17:30:59 am 12.01.2018 Daniels iPad 7:6 normal
17:25:10 am 12.01.2018 Georg T 4:9 normal
17:21:26 am 12.01.2018 DELETED 8:1 normal
17:18:38 am 12.01.2018 Friedrich Zenger 7:2 normal
17:12:50 am 12.01.2018 Sara 8:4 normal
17:10:09 am 12.01.2018 Horst wugonigg 8:2 normal
17:08:35 am 12.01.2018 Schmemi 8:0 normal
17:05:30 am 12.01.2018 iPhone 8:3 normal
16:41:19 am 12.01.2018 Toni 8:5 normal
16:25:03 am 12.01.2018 schweinesau 7:6 normal
16:21:25 am 12.01.2018 Josef 8:3 normal
16:16:16 am 12.01.2018 kasch 8:5 normal
16:12:16 am 12.01.2018 Peter61 4:9 normal
16:09:47 am 12.01.2018 Stefan 3:7 normal